Craig, Alaska
Current Conditions -  °F | °C
As of 5:53 AM on Thursday 23 Oct 2014 (Local Time) from PAKW Reporting Station
Scattered Clouds Scattered Clouds  
Wind Chill: 42°   Ceiling: Unl
Heat Index: 44°   Visibility: 10mi
Dew Point: 42°   Wind: 5mph
Humidity: 93%   Direction: 140°SE
Pressure: 29.42"   Gusts: NA
Location:  55.47°N, 133.13°W
Report Text: PAKW 231353Z AUTO 14004KT 10SM SCT032 SCT039 07/06 A2942 RMK AO2 SLP963 T00670056 TSNO
Loading
Personal Weather Stations






























Interactive Weather Map
Tropical Storm Tracking
New forecast layout! Learn more

10-Day Weather Forecast

Advertisements
Track Severe Weather on mobile